Time;durP1;ratioP1;P1;durP2;ratioP2;P2;SDS_P1;SDS_P2;PMS_P1;PMS_P2;Temp;Humidity;BMP_temperature;BMP_pressure;BME280_temperature;BME280_humidity;BME280_pressure;Samples;Min_cycle;Max_cycle;Signal;HPM_P1;HPM_P2
2021/12/11 00:02:36;;;;;;;18.92;11.13;;;;;;;5.19;95.47;101190.31;10478410;28;20491;-72
2021/12/11 00:07:37;;;;;;;20.33;11.57;;;;;;;5.61;95.86;101265.34;10496249;28;20036;-72
2021/12/11 00:12:49;;;;;;;18.42;10.25;;;;;;;4.53;95.96;101079.28;10496096;28;20059;-72
2021/12/11 00:17:57;;;;;;;19.90;10.60;;;;;;;6.16;95.64;101344.81;10494586;28;20408;-72
2021/12/11 00:22:58;;;;;;;20.80;11.30;;;;;;;5.66;95.95;101279.03;10495415;28;20458;-72
2021/12/11 00:28:04;;;;;;;17.50;9.73;;;;;;;5.40;95.55;101235.31;10496428;28;20105;-72
2021/12/11 00:33:13;;;;;;;25.05;11.07;;;;;;;5.64;95.67;101273.03;10495630;28;20510;-72
2021/12/11 00:38:20;;;;;;;22.95;10.88;;;;;;;5.30;95.01;101219.34;10495283;28;20090;-72
2021/12/11 00:43:28;;;;;;;25.10;11.07;;;;;;;5.99;95.61;101342.63;10496175;28;20048;-72
2021/12/11 00:48:30;;;;;;;23.83;10.07;;;;;;;5.78;95.85;101316.84;10495334;28;20060;-72
2021/12/11 00:53:41;;;;;;;23.85;10.65;;;;;;;4.89;95.57;101173.16;10495398;28;20040;-72
2021/12/11 00:58:44;;;;;;;24.05;10.30;;;;;;;5.81;95.79;101335.06;10494900;28;20037;-71
2021/12/11 01:04:14;;;;;;;22.75;10.75;;;;;;;5.29;96.37;101232.63;10494440;28;20046;-72
2021/12/11 01:09:22;;;;;;;28.05;10.02;;;;;;;4.91;95.80;101176.53;10493585;28;20080;-72
2021/12/11 01:14:37;;;;;;;23.90;10.20;;;;;;;4.78;96.33;101166.00;10494398;28;20067;-72
2021/12/11 01:19:44;;;;;;;19.25;8.98;;;;;;;5.35;96.58;101251.44;10495486;28;20032;-72
2021/12/11 01:24:47;;;;;;;21.55;9.40;;;;;;;4.80;95.79;101158.03;10495324;28;20052;-72
2021/12/11 01:29:50;;;;;;;19.35;9.48;;;;;;;4.72;96.86;101152.47;10500627;28;20127;-72
2021/12/11 01:34:52;;;;;;;19.88;10.13;;;;;;;5.68;96.15;101308.78;10501303;28;20047;-72
2021/12/11 01:39:53;;;;;;;21.05;10.35;;;;;;;5.65;96.07;101301.09;10501216;28;20048;-73
2021/12/11 01:44:56;;;;;;;20.05;9.90;;;;;;;5.20;96.44;101234.97;10501145;28;20055;-72
2021/12/11 01:50:05;;;;;;;17.67;10.07;;;;;;;5.11;96.50;101219.00;10501621;28;20095;-72
2021/12/11 01:55:39;;;;;;;21.98;10.27;;;;;;;5.85;96.57;101341.78;10501437;28;20040;-72
2021/12/11 02:00:51;;;;;;;22.43;10.73;;;;;;;5.76;96.59;101328.44;10498820;28;20106;-72
2021/12/11 02:05:52;;;;;;;22.65;11.13;;;;;;;4.20;95.83;101090.41;10500703;28;20067;-72
2021/12/11 02:11:09;;;;;;;28.92;10.93;;;;;;;5.62;96.56;101324.19;10500473;28;20131;-72
2021/12/11 02:16:19;;;;;;;19.15;10.65;;;;;;;5.29;96.40;101270.34;10500603;28;20076;-72
2021/12/11 02:21:26;;;;;;;21.60;11.20;;;;;;;5.61;96.69;101348.88;10500504;28;20090;-72
2021/12/11 02:26:28;;;;;;;22.63;11.55;;;;;;;5.75;97.14;101356.63;10499866;28;20075;-72
2021/12/11 02:31:42;;;;;;;21.92;10.90;;;;;;;5.67;96.80;101346.63;10499847;28;20131;-72
2021/12/11 02:36:54;;;;;;;29.48;11.35;;;;;;;5.71;96.56;101361.28;10499477;28;20044;-72
2021/12/11 02:42:09;;;;;;;22.15;11.55;;;;;;;5.70;97.11;101362.22;10498430;28;20044;-72
2021/12/11 02:47:25;;;;;;;22.80;11.13;;;;;;;5.60;97.30;101342.75;10499026;28;20056;-72
2021/12/11 02:52:35;;;;;;;25.42;11.48;;;;;;;5.69;97.64;101343.88;10498895;28;20139;-72
2021/12/11 02:57:45;;;;;;;27.75;11.00;;;;;;;5.83;97.02;101361.31;10498098;28;20051;-72
2021/12/11 03:02:50;;;;;;;22.83;10.70;;;;;;;5.11;97.02;101232.16;10498998;28;20032;-72
2021/12/11 03:07:53;;;;;;;24.35;11.10;;;;;;;5.87;97.25;101358.34;10498289;28;20047;-72
2021/12/11 03:12:56;;;;;;;21.48;11.07;;;;;;;5.80;96.80;101359.75;10498311;28;20040;-72
2021/12/11 03:17:56;;;;;;;20.95;11.05;;;;;;;5.21;97.37;101275.34;10497221;28;20067;-72
2021/12/11 03:22:57;;;;;;;26.35;11.48;;;;;;;5.69;97.49;101364.97;10479417;28;20053;-72
2021/12/11 03:27:59;;;;;;;25.65;11.20;;;;;;;5.09;97.63;101257.78;10497464;28;20396;-72
2021/12/11 03:33:05;;;;;;;21.08;10.98;;;;;;;5.78;98.06;101369.56;10497217;28;20123;-72
2021/12/11 03:38:08;;;;;;;27.48;11.80;;;;;;;3.56;97.64;101001.13;10497488;28;20123;-72
2021/12/11 03:43:12;;;;;;;22.75;11.20;;;;;;;4.65;97.34;101190.72;10496295;28;20036;-72
2021/12/11 03:48:17;;;;;;;28.60;11.88;;;;;;;5.67;98.48;101365.06;10496650;28;20052;-74
2021/12/11 03:53:19;;;;;;;32.20;12.15;;;;;;;5.54;98.23;101359.00;10497160;28;20488;-72
2021/12/11 03:58:20;;;;;;;22.30;11.75;;;;;;;4.79;98.30;101257.22;10496710;28;20044;-74
2021/12/11 04:03:24;;;;;;;26.83;11.48;;;;;;;5.10;98.94;101306.88;10496924;28;20207;-73
2021/12/11 04:08:33;;;;;;;27.90;11.60;;;;;;;4.51;99.10;101210.09;10495598;28;20049;-74
2021/12/11 04:13:34;;;;;;;29.92;10.95;;;;;;;4.33;98.56;101172.75;10496213;28;20043;-73
2021/12/11 04:18:36;;;;;;;23.75;10.23;;;;;;;5.37;98.37;101341.78;10495898;28;20048;-74
2021/12/11 04:23:37;;;;;;;20.63;8.60;;;;;;;5.22;98.39;101370.03;10473939;28;20123;-71
2021/12/11 04:28:40;;;;;;;22.38;10.05;;;;;;;4.70;99.03;101299.16;10454228;28;20052;-74
2021/12/11 04:33:45;;;;;;;23.75;10.45;;;;;;;5.04;99.34;101363.44;10454185;28;20041;-72
2021/12/11 04:38:47;;;;;;;;;;;;;;;5.13;98.01;101377.75;10454454;28;20501;-72
2021/12/11 04:43:51;;;;;;;14.88;8.23;;;;;;;4.67;98.78;101323.88;10453545;28;19916;-74
2021/12/11 04:49:35;;;;;;;18.88;9.43;;;;;;;4.62;99.06;101327.78;10452684;28;20049;-74
2021/12/11 04:54:44;;;;;;;19.00;9.07;;;;;;;4.97;99.75;101373.56;10450022;28;20056;-74
2021/12/11 04:59:56;;;;;;;13.90;7.80;;;;;;;5.01;99.19;101374.19;10453828;28;20120;-73
2021/12/11 05:10:23;;;;;;;14.15;7.00;;;;;;;3.40;99.29;101148.44;10461608;28;20044;-72
2021/12/11 05:15:44;;;;;;;11.43;6.63;;;;;;;4.97;99.73;101406.97;10460826;28;20055;-72
2021/12/11 05:20:49;;;;;;;17.48;7.63;;;;;;;4.09;99.51;101278.69;10460570;28;20072;-72
2021/12/11 05:25:51;;;;;;;15.68;7.78;;;;;;;4.64;100.00;101374.09;10466137;28;20139;-72
2021/12/11 05:30:54;;;;;;;21.02;8.63;;;;;;;4.89;99.63;101409.28;10493077;28;20420;-70
2021/12/11 05:35:56;;;;;;;17.35;8.52;;;;;;;4.84;100.00;101417.47;10461042;28;20045;-70
2021/12/11 05:41:01;;;;;;;17.35;8.32;;;;;;;4.57;100.00;101364.91;10473324;28;20037;-71
2021/12/11 05:46:03;;;;;;;16.20;8.43;;;;;;;4.43;100.00;101352.72;10473854;28;20049;-72
2021/12/11 05:51:06;;;;;;;13.63;7.35;;;;;;;4.64;100.00;101402.22;10496818;28;20068;-74
2021/12/11 05:56:11;;;;;;;14.02;7.75;;;;;;;4.34;100.00;101367.31;10483128;28;20139;-73
2021/12/11 06:01:16;;;;;;;20.08;8.15;;;;;;;4.43;100.00;101384.28;10468036;28;20496;-73
2021/12/11 06:06:17;;;;;;;19.52;7.55;;;;;;;4.40;100.00;101373.09;10441087;28;20044;-72
2021/12/11 06:11:18;;;;;;;20.48;7.30;;;;;;;4.14;99.59;101338.03;10458673;28;20520;-73
2021/12/11 06:16:19;;;;;;;21.42;7.13;;;;;;;4.53;100.00;101411.66;10457600;28;20074;-73
2021/12/11 06:21:21;;;;;;;14.90;6.72;;;;;;;4.52;100.00;101422.31;10458946;28;20132;-73
2021/12/11 06:26:21;;;;;;;17.52;7.13;;;;;;;3.39;100.00;101226.41;10458659;28;20444;-73
2021/12/11 06:31:22;;;;;;;15.75;6.05;;;;;;;4.19;100.00;101370.97;10457918;28;20040;-73
2021/12/11 06:36:24;;;;;;;12.40;6.00;;;;;;;4.42;99.28;101415.94;10458362;28;20041;-73
2021/12/11 06:41:30;;;;;;;12.73;5.38;;;;;;;4.18;99.38;101400.00;10458319;28;20166;-73
2021/12/11 06:46:32;;;;;;;7.90;4.35;;;;;;;4.00;99.37;101373.13;10457994;28;20048;-73
2021/12/11 06:51:34;;;;;;;15.13;5.45;;;;;;;4.23;99.09;101442.63;10458327;28;20474;-74
2021/12/11 06:56:38;;;;;;;8.80;4.72;;;;;;;4.10;99.56;101430.28;10457489;28;20048;-73
2021/12/11 07:01:40;;;;;;;9.45;4.32;;;;;;;3.17;99.02;101320.63;10457522;28;20041;-73
2021/12/11 07:06:46;;;;;;;7.53;4.22;;;;;;;3.70;98.84;101408.31;10457921;28;20045;-73
2021/12/11 07:11:47;;;;;;;13.38;4.60;;;;;;;3.89;99.60;101452.69;10456738;28;20047;-74
2021/12/11 07:16:49;;;;;;;10.20;4.72;;;;;;;3.85;99.23;101467.78;10456073;28;20231;-73
2021/12/11 07:21:51;;;;;;;8.50;4.57;;;;;;;3.09;98.95;101320.28;10456625;28;20413;-74
2021/12/11 07:26:52;;;;;;;8.70;4.00;;;;;;;3.85;98.30;101456.44;10456456;28;20044;-74
2021/12/11 07:31:53;;;;;;;8.60;3.72;;;;;;;3.82;99.25;101467.16;10456409;28;20036;-73
2021/12/11 07:36:55;;;;;;;10.75;4.20;;;;;;;3.78;98.67;101439.38;10456311;28;20140;-74
2021/12/11 07:41:57;;;;;;;9.25;4.32;;;;;;;3.84;98.69;101460.84;10455235;28;20128;-73
2021/12/11 07:47:00;;;;;;;7.68;3.20;;;;;;;3.81;98.43;101452.34;10455346;28;20107;-73
2021/12/11 07:52:03;;;;;;;7.60;3.20;;;;;;;3.53;98.21;101393.66;10456012;28;20052;-73
2021/12/11 07:57:04;;;;;;;5.57;3.00;;;;;;;2.80;98.13;101272.22;10455262;28;20500;-74
2021/12/11 08:02:05;;;;;;;6.03;3.05;;;;;;;3.71;97.98;101414.41;10455079;28;20080;-73
2021/12/11 08:07:06;;;;;;;8.02;3.80;;;;;;;3.86;98.04;101437.13;10454772;28;20045;-73
2021/12/11 08:12:07;;;;;;;15.52;4.00;;;;;;;3.86;98.22;101430.06;10454865;28;20037;-73
2021/12/11 08:17:08;;;;;;;7.10;3.17;;;;;;;3.89;98.19;101419.38;10437126;28;20064;-73
2021/12/11 08:22:10;;;;;;;5.85;2.78;;;;;;;3.90;97.55;101404.44;10436114;28;20051;-74
2021/12/11 08:27:16;;;;;;;6.03;3.03;;;;;;;4.00;98.43;101416.03;10454533;28;20041;-74
2021/12/11 08:32:19;;;;;;;6.10;2.83;;;;;;;3.96;97.61;101398.78;10452372;28;20675;-73
2021/12/11 08:37:22;;;;;;;7.68;2.83;;;;;;;4.01;97.36;101425.63;10456126;28;20045;-73
2021/12/11 08:42:29;;;;;;;6.90;2.42;;;;;;;3.92;97.34;101423.59;10463428;28;20037;-73
2021/12/11 08:47:30;;;;;;;5.50;3.13;;;;;;;3.90;97.61;101404.44;10463053;28;20053;-73
2021/12/11 08:52:36;;;;;;;6.05;2.58;;;;;;;3.67;96.84;101384.88;10462943;28;20049;-74
2021/12/11 08:57:39;;;;;;;7.60;2.97;;;;;;;3.82;97.92;101391.75;10462253;28;20055;-73
2021/12/11 09:03:11;;;;;;;4.97;2.27;;;;;;;3.62;97.26;101351.03;10462044;28;20520;-73
2021/12/11 09:08:19;;;;;;;7.03;2.72;;;;;;;2.86;96.68;101219.34;10461473;28;20836;-73
2021/12/11 09:13:31;;;;;;;6.35;2.78;;;;;;;4.17;96.90;101400.94;10461554;28;20051;-73
2021/12/11 09:18:42;;;;;;;6.60;2.83;;;;;;;4.18;96.83;101413.16;10460815;28;20552;-73
2021/12/11 09:24:04;;;;;;;7.43;2.97;;;;;;;4.35;96.34;101428.66;10461781;28;20414;-73
2021/12/11 09:29:16;;;;;;;6.45;2.88;;;;;;;4.15;96.36;101387.03;10460244;28;20037;-74
2021/12/11 09:34:20;;;;;;;5.90;2.53;;;;;;;3.99;96.54;101395.94;10460866;28;20451;-73
2021/12/11 09:39:53;;;;;;;8.07;3.30;;;;;;;3.73;96.84;101349.47;10460202;28;20044;-73
2021/12/11 09:45:08;;;;;;;6.25;3.08;;;;;;;2.53;96.52;101156.72;10460451;28;20044;-73
2021/12/11 09:50:15;;;;;;;6.40;2.92;;;;;;;3.06;96.15;101260.91;10460340;28;20595;-73
2021/12/11 09:55:29;;;;;;;6.10;3.03;;;;;;;3.60;97.18;101346.81;10459978;28;20558;-74
2021/12/11 10:00:41;;;;;;;7.28;3.22;;;;;;;3.80;97.03;101367.38;10442205;28;20090;-73
2021/12/11 10:05:55;;;;;;;5.72;3.03;;;;;;;3.94;96.34;101369.09;10460342;28;20037;-73
2021/12/11 10:11:19;;;;;;;8.23;3.53;;;;;;;4.03;96.55;101392.16;10459687;28;20037;-73
2021/12/11 10:16:25;;;;;;;7.50;3.90;;;;;;;3.36;96.08;101286.16;10459337;28;20105;-73
2021/12/11 10:21:36;;;;;;;7.82;4.10;;;;;;;3.91;96.71;101400.84;10459845;28;20036;-73
2021/12/11 10:26:39;;;;;;;7.93;3.25;;;;;;;3.94;96.88;101410.31;10458597;28;20046;-74
2021/12/11 10:31:45;;;;;;;6.07;3.25;;;;;;;3.80;97.46;101382.28;10458156;28;20411;-73
2021/12/11 10:36:52;;;;;;;10.15;4.00;;;;;;;3.55;96.78;101349.72;10458890;28;20381;-73
2021/12/11 10:41:54;;;;;;;9.32;4.45;;;;;;;3.67;97.37;101395.38;10458318;28;20048;-73
2021/12/11 10:47:30;;;;;;;11.43;4.90;;;;;;;3.69;96.95;101411.06;10439922;28;20535;-73
2021/12/11 10:52:31;;;;;;;12.48;4.43;;;;;;;3.49;97.71;101412.31;10443314;28;20057;-74
2021/12/11 10:57:33;;;;;;;11.05;5.72;;;;;;;3.31;98.35;101419.56;10457020;28;20040;-73
2021/12/11 11:02:34;;;;;;;8.82;4.68;;;;;;;3.48;98.86;101432.50;10456405;28;20033;-73
2021/12/11 11:07:36;;;;;;;11.50;5.15;;;;;;;3.61;97.74;101449.16;10457995;28;20044;-73
2021/12/11 11:12:37;;;;;;;8.65;4.53;;;;;;;3.60;97.16;101465.03;10456599;28;20072;-73
2021/12/11 11:17:38;;;;;;;10.13;4.15;;;;;;;3.38;97.96;101455.00;10456280;28;20095;-73
2021/12/11 11:22:41;;;;;;;11.52;6.25;;;;;;;2.81;99.02;101399.84;10456897;28;20045;-73
2021/12/11 11:27:45;;;;;;;14.52;5.50;;;;;;;3.22;98.33;101470.00;10456733;28;20044;-73
2021/12/11 11:32:47;;;;;;;11.67;6.10;;;;;;;2.72;99.11;101398.59;10456327;28;20048;-73
2021/12/11 11:37:52;;;;;;;14.95;6.38;;;;;;;2.36;98.50;101339.53;10456192;28;20127;-73
2021/12/11 11:42:53;;;;;;;15.52;6.10;;;;;;;2.94;99.15;101456.75;10455472;28;20047;-73
2021/12/11 11:47:56;;;;;;;13.13;5.88;;;;;;;3.27;98.75;101497.69;10455479;28;20048;-73
2021/12/11 11:52:57;;;;;;;28.15;16.45;;;;;;;2.73;99.01;101424.75;10455630;28;20523;-73
2021/12/11 11:57:58;;;;;;;18.95;7.47;;;;;;;2.87;98.60;101459.81;10455597;28;20049;-74
2021/12/11 12:02:59;;;;;;;14.25;7.05;;;;;;;2.97;98.95;101503.81;10466071;28;20040;-76
2021/12/11 12:08:00;;;;;;;11.73;5.05;;;;;;;3.09;98.96;101528.50;10478448;28;20047;-73
2021/12/11 12:13:07;;;;;;;12.15;5.68;;;;;;;2.34;99.38;101419.25;10484629;28;20036;-74
2021/12/11 12:18:08;;;;;;;12.98;6.32;;;;;;;3.04;99.31;101514.81;10466550;28;20055;-73
2021/12/11 12:23:10;;;;;;;13.90;5.22;;;;;;;3.24;98.60;101536.41;10476569;28;20042;-73
2021/12/11 12:28:11;;;;;;;11.15;6.03;;;;;;;2.84;98.95;101481.00;10496028;28;20040;-73
2021/12/11 12:33:14;;;;;;;13.52;6.20;;;;;;;3.05;99.01;101529.63;10476901;28;20037;-73
2021/12/11 12:38:20;;;;;;;11.80;6.15;;;;;;;3.06;99.43;101526.06;10454553;28;20033;-73
2021/12/11 12:43:53;;;;;;;10.20;5.30;;;;;;;3.12;99.07;101546.72;10455214;28;20049;-73
2021/12/11 12:48:47;;;;;;;26.52;15.00;;;;;;;2.87;98.70;101510.56;10454021;28;20409;-73
2021/12/11 12:53:49;;;;;;;25.27;12.48;;;;;;;3.06;98.40;101543.59;10436399;28;20052;-73
2021/12/11 12:58:59;;;;;;;10.80;5.50;;;;;;;2.17;98.62;101407.94;10452159;28;20056;-73
2021/12/11 13:04:05;;;;;;;11.23;5.07;;;;;;;2.96;98.30;101551.16;10454040;28;20069;-73
2021/12/11 13:09:18;;;;;;;10.00;5.32;;;;;;;2.26;98.84;101433.63;10453654;28;20133;-73
2021/12/11 13:14:19;;;;;;;11.35;5.95;;;;;;;2.44;98.82;101488.56;10453892;28;20048;-74
2021/12/11 13:19:26;;;;;;;13.27;5.80;;;;;;;2.62;99.02;101545.22;10453565;28;20485;-74
2021/12/11 13:24:27;;;;;;;11.88;5.65;;;;;;;2.67;99.32;101553.69;10458061;28;20095;-73
2021/12/11 13:29:33;;;;;;;15.88;7.57;;;;;;;2.77;99.44;101575.00;10460651;28;20079;-73
2021/12/11 13:34:37;;;;;;;11.07;6.13;;;;;;;2.79;99.41;101583.63;10460900;28;20095;-73
2021/12/11 13:39:41;;;;;;;14.75;5.88;;;;;;;2.75;99.75;101584.72;10460776;28;20501;-73
2021/12/11 13:44:44;;;;;;;9.65;5.15;;;;;;;2.74;99.56;101589.13;10461379;28;20048;-73
2021/12/11 13:49:46;;;;;;;11.75;6.28;;;;;;;2.63;99.76;101586.28;10459929;28;20509;-75
2021/12/11 13:54:49;;;;;;;11.90;5.28;;;;;;;2.02;100.00;101506.63;10460043;28;20489;-73
2021/12/11 13:59:53;;;;;;;9.95;5.78;;;;;;;2.56;100.00;101605.06;10460076;28;20041;-73
2021/12/11 14:04:54;;;;;;;12.15;5.88;;;;;;;2.39;100.00;101583.22;10459303;28;20045;-73
2021/12/11 14:10:02;;;;;;;16.55;6.13;;;;;;;2.44;100.00;101585.63;10480142;28;20488;-74
2021/12/11 14:15:05;;;;;;;9.80;5.05;;;;;;;2.66;100.00;101627.22;10500534;28;20049;-73
2021/12/11 14:20:07;;;;;;;11.65;5.78;;;;;;;2.63;100.00;101630.88;10500797;28;20496;-73
2021/12/11 14:25:11;;;;;;;11.45;5.65;;;;;;;2.68;100.00;101626.22;10500601;28;20044;-73
2021/12/11 14:30:14;;;;;;;17.10;6.03;;;;;;;2.44;100.00;101620.53;10500972;28;20072;-73
2021/12/11 14:35:16;;;;;;;16.52;5.95;;;;;;;1.54;100.00;101471.69;10498338;28;20446;-72
2021/12/11 14:40:20;;;;;;;13.18;6.82;;;;;;;2.65;100.00;101664.91;10500334;28;20495;-73
2021/12/11 14:45:25;;;;;;;14.18;6.97;;;;;;;2.66;100.00;101649.09;10499429;28;20376;-73
2021/12/11 14:50:30;;;;;;;10.88;6.25;;;;;;;2.01;100.00;101546.88;10499573;28;20052;-73
2021/12/11 14:55:43;;;;;;;11.77;5.25;;;;;;;2.24;100.00;101582.31;10498681;28;20052;-73
2021/12/11 15:00:58;;;;;;;14.57;5.97;;;;;;;2.03;100.00;101584.34;10481043;28;20040;-73
2021/12/11 15:06:00;;;;;;;10.90;5.80;;;;;;;2.63;100.00;101685.97;10498506;28;20086;-73
2021/12/11 15:11:12;;;;;;;11.32;6.05;;;;;;;2.05;100.00;101577.22;10497669;28;20049;-73
2021/12/11 15:16:15;;;;;;;12.57;6.80;;;;;;;1.76;99.88;101523.75;10479590;28;20485;-72
2021/12/11 15:21:21;;;;;;;13.85;7.07;;;;;;;2.42;100.00;101629.41;10498402;28;20043;-73
2021/12/11 15:26:22;;;;;;;14.23;5.65;;;;;;;2.50;100.00;101662.16;10497533;28;20036;-72
2021/12/11 15:31:31;;;;;;;11.57;6.55;;;;;;;2.47;100.00;101666.75;10497459;28;20131;-73
2021/12/11 15:36:35;;;;;;;12.95;6.57;;;;;;;2.39;100.00;101648.78;10496566;28;20044;-73
2021/12/11 15:41:37;;;;;;;17.20;7.10;;;;;;;2.48;100.00;101685.03;10496669;28;20452;-74
2021/12/11 15:46:37;;;;;;;14.80;6.55;;;;;;;2.52;100.00;101698.81;10495932;28;20043;-73
2021/12/11 15:51:40;;;;;;;15.60;7.18;;;;;;;2.50;100.00;101708.53;10496871;28;20040;-73
2021/12/11 15:56:46;;;;;;;12.35;7.50;;;;;;;2.25;100.00;101661.81;10496952;28;20059;-73
2021/12/11 16:01:48;;;;;;;12.00;7.55;;;;;;;2.54;100.00;101711.84;10496686;28;20044;-73
2021/12/11 16:06:49;;;;;;;11.73;6.35;;;;;;;2.27;100.00;101665.19;10496893;28;20068;-73
2021/12/11 16:11:54;;;;;;;11.95;6.80;;;;;;;2.05;100.00;101670.72;10478733;28;20044;-73
2021/12/11 16:16:59;;;;;;;12.30;7.63;;;;;;;2.45;100.00;101731.53;10495727;28;20055;-73
2021/12/11 16:22:07;;;;;;;16.33;8.13;;;;;;;2.50;100.00;101730.38;10496712;28;20047;-72
2021/12/11 16:27:09;;;;;;;17.55;8.52;;;;;;;2.46;100.00;101712.28;10495433;28;20496;-74
2021/12/11 16:32:10;;;;;;;17.52;9.15;;;;;;;2.30;100.00;101691.25;10495104;28;20385;-73
2021/12/11 16:37:28;;;;;;;13.43;8.27;;;;;;;2.19;100.00;101677.88;10495764;28;20178;-73
2021/12/11 16:42:37;;;;;;;15.52;8.55;;;;;;;2.40;100.00;101729.19;10495529;28;20416;-73
2021/12/11 16:47:38;;;;;;;21.75;9.88;;;;;;;2.15;100.00;101716.50;10496031;28;20048;-73
2021/12/11 16:52:39;;;;;;;17.67;10.75;;;;;;;1.37;100.00;101594.78;10478029;28;20139;-73
2021/12/11 16:57:41;;;;;;;19.90;9.63;;;;;;;2.08;100.00;101717.75;10496653;28;20044;-73
2021/12/11 17:02:42;;;;;;;17.90;10.25;;;;;;;2.25;100.00;101757.06;10502277;28;20046;-74
2021/12/11 17:07:44;;;;;;;17.67;10.40;;;;;;;0.89;100.00;101512.59;10502651;28;20044;-73
2021/12/11 17:12:46;;;;;;;16.98;10.00;;;;;;;1.43;100.00;101607.56;10503720;28;20136;-73
2021/12/11 17:17:48;;;;;;;16.95;10.45;;;;;;;2.01;100.00;101725.09;10502204;28;20037;-73
2021/12/11 17:22:50;;;;;;;18.90;10.63;;;;;;;2.01;100.00;101717.22;10502845;28;20480;-73
2021/12/11 17:27:53;;;;;;;16.35;9.65;;;;;;;2.01;100.00;101726.88;10502022;28;20044;-74
2021/12/11 17:32:54;;;;;;;18.77;9.80;;;;;;;2.21;100.00;101747.63;10502549;28;20385;-73
2021/12/11 17:37:55;;;;;;;17.63;10.00;;;;;;;2.12;100.00;101748.13;10502036;28;20099;-73
2021/12/11 17:42:56;;;;;;;15.75;9.13;;;;;;;2.12;100.00;101742.88;10501841;28;20051;-73
2021/12/11 17:48:00;;;;;;;18.70;9.85;;;;;;;1.95;100.00;101729.81;10501654;28;20519;-74
2021/12/11 17:53:03;;;;;;;18.63;9.75;;;;;;;1.06;100.00;101587.63;10501377;28;20048;-73
2021/12/11 17:58:04;;;;;;;16.13;8.38;;;;;;;2.08;100.00;101740.50;10501690;28;20051;-73
2021/12/11 18:03:05;;;;;;;16.30;9.25;;;;;;;2.05;100.00;101746.75;10501202;28;20132;-73
2021/12/11 18:08:11;;;;;;;14.65;7.55;;;;;;;2.02;100.00;101744.28;10500666;28;20078;-73
2021/12/11 18:13:23;;;;;;;15.75;9.18;;;;;;;1.77;100.00;101698.38;10500929;28;20049;-73
2021/12/11 18:18:30;;;;;;;20.52;10.20;;;;;;;1.65;100.00;101680.66;10499517;28;20036;-73
2021/12/11 18:23:33;;;;;;;15.80;8.57;;;;;;;2.09;99.66;101744.81;10482194;28;20552;-73
2021/12/11 18:28:35;;;;;;;15.00;8.57;;;;;;;1.78;99.88;101715.78;10500630;28;20036;-73
2021/12/11 18:33:37;;;;;;;16.00;9.45;;;;;;;1.82;100.00;101727.81;10500533;28;20041;-73
2021/12/11 18:38:40;;;;;;;17.85;10.45;;;;;;;2.10;100.00;101773.59;10499859;28;20564;-73
2021/12/11 18:43:43;;;;;;;19.10;10.48;;;;;;;1.49;100.00;101643.91;10499721;28;20055;-74
2021/12/11 18:48:45;;;;;;;20.65;10.18;;;;;;;2.41;100.00;101798.22;10494032;28;20056;-74
2021/12/11 18:53:49;;;;;;;22.88;10.65;;;;;;;2.45;100.00;101789.25;10494836;28;20052;-72
2021/12/11 18:58:53;;;;;;;21.33;9.45;;;;;;;1.55;99.23;101634.88;10493544;28;20044;-74
2021/12/11 19:04:00;;;;;;;19.83;10.20;;;;;;;1.58;99.91;101656.53;10442447;28;20063;-70
2021/12/11 19:09:08;;;;;;;20.52;10.48;;;;;;;1.98;99.65;101721.78;10493136;28;20074;-71
2021/12/11 19:14:09;;;;;;;19.42;10.48;;;;;;;2.27;99.95;101759.59;10475410;28;20131;-73
2021/12/11 19:19:13;;;;;;;24.45;11.65;;;;;;;2.31;100.00;101768.16;10483213;28;20395;-71
2021/12/11 19:24:18;;;;;;;20.80;11.82;;;;;;;1.43;100.00;101609.31;10473189;28;20424;-74
2021/12/11 19:29:20;;;;;;;24.67;11.88;;;;;;;1.66;99.95;101645.66;10463635;28;20061;-73
2021/12/11 19:34:24;;;;;;;23.75;11.60;;;;;;;1.52;98.97;101629.81;10456695;28;20041;-73
2021/12/11 19:39:33;;;;;;;19.60;10.57;;;;;;;2.27;98.86;101760.47;10456043;28;20037;-73
2021/12/11 19:44:35;;;;;;;20.10;10.07;;;;;;;1.95;98.62;101733.28;10455856;28;20420;-73
2021/12/11 19:49:37;;;;;;;20.98;10.48;;;;;;;1.16;98.65;101628.13;10456272;28;20068;-72
2021/12/11 19:54:42;;;;;;;22.92;11.20;;;;;;;1.34;99.05;101694.41;10455367;28;20044;-73
2021/12/11 20:00:14;;;;;;;19.17;10.65;;;;;;;1.65;98.54;101735.66;10455164;28;20480;-73
2021/12/11 20:05:24;;;;;;;23.17;11.73;;;;;;;1.89;98.96;101786.00;10440362;28;20099;-72
2021/12/11 20:10:29;;;;;;;22.00;12.13;;;;;;;1.70;98.99;101759.00;10454762;28;20041;-72
2021/12/11 20:15:33;;;;;;;23.98;11.65;;;;;;;1.25;98.96;101681.78;10454888;28;20040;-73
2021/12/11 20:20:34;;;;;;;28.88;13.80;;;;;;;1.50;99.40;101733.81;10454481;28;20496;-73
2021/12/11 20:25:38;;;;;;;28.85;13.77;;;;;;;1.71;99.73;101776.44;10454109;28;20049;-73
2021/12/11 20:30:49;;;;;;;23.50;11.90;;;;;;;1.89;99.77;101806.97;10455056;28;20037;-72
2021/12/11 20:35:51;;;;;;;20.77;10.68;;;;;;;1.85;99.90;101788.84;10453370;28;20495;-73
2021/12/11 20:41:09;;;;;;;22.02;11.80;;;;;;;1.74;100.00;101787.59;10454221;28;20045;-73
2021/12/11 20:46:10;;;;;;;24.45;12.02;;;;;;;1.02;100.00;101672.44;10454219;28;20509;-73
2021/12/11 20:51:16;;;;;;;21.17;10.73;;;;;;;1.79;100.00;101808.31;10454487;28;20064;-72
2021/12/11 20:56:20;;;;;;;17.08;9.52;;;;;;;1.75;100.00;101822.50;10453907;28;20040;-73
2021/12/11 21:01:27;;;;;;;16.55;8.73;;;;;;;1.78;100.00;101815.34;10436976;28;20041;-73
2021/12/11 21:06:39;;;;;;;17.88;10.50;;;;;;;1.24;100.00;101719.38;10454854;28;20041;-73
2021/12/11 21:11:49;;;;;;;16.00;9.10;;;;;;;1.88;100.00;101827.97;10454633;28;20044;-73
2021/12/11 21:16:55;;;;;;;15.18;8.95;;;;;;;1.89;100.00;101819.22;10453990;28;20037;-73
2021/12/11 21:22:02;;;;;;;16.60;8.55;;;;;;;0.93;100.00;101660.66;10453400;28;20045;-73
2021/12/11 21:27:11;;;;;;;15.75;7.57;;;;;;;1.03;100.00;101672.38;10451726;28;20041;-73
2021/12/11 21:32:16;;;;;;;14.43;6.80;;;;;;;1.66;100.00;101757.47;10453285;28;20049;-72
2021/12/11 21:37:20;;;;;;;13.52;5.60;;;;;;;1.88;100.00;101771.19;10452603;28;20055;-72
2021/12/11 21:42:31;;;;;;;13.68;5.93;;;;;;;1.82;100.00;101777.59;10452789;28;20073;-72
2021/12/11 21:47:33;;;;;;;8.90;5.07;;;;;;;1.79;100.00;101779.50;10471068;28;20056;-72
2021/12/11 21:52:38;;;;;;;8.98;4.30;;;;;;;1.72;100.00;101763.25;10498151;28;20040;-72
2021/12/11 21:57:39;;;;;;;9.93;5.57;;;;;;;1.61;99.66;101752.44;10501694;28;20052;-72
2021/12/11 22:02:52;;;;;;;26.25;8.60;;;;;;;0.96;99.37;101654.41;10501411;28;20120;-73
2021/12/11 22:07:53;;;;;;;16.92;8.95;;;;;;;0.63;99.17;101631.56;10501664;28;20040;-73
2021/12/11 22:12:55;;;;;;;15.82;9.05;;;;;;;0.75;99.81;101659.75;10501805;28;20050;-73
2021/12/11 22:17:57;;;;;;;17.10;7.45;;;;;;;1.62;99.01;101808.31;10500204;28;20040;-73
2021/12/11 22:23:00;;;;;;;19.90;10.98;;;;;;;1.15;98.90;101749.44;10499339;28;20044;-73
2021/12/11 22:28:03;;;;;;;18.27;9.47;;;;;;;1.20;99.42;101739.59;10501040;28;20825;-73
2021/12/11 22:33:08;;;;;;;15.07;8.55;;;;;;;1.37;99.36;101781.50;10500085;28;20051;-73
2021/12/11 22:38:11;;;;;;;15.80;8.48;;;;;;;0.89;99.58;101707.03;10500284;28;20121;-72
2021/12/11 22:43:16;;;;;;;19.48;9.35;;;;;;;1.45;99.31;101802.09;10499355;28;20046;-73
2021/12/11 22:48:21;;;;;;;20.00;8.50;;;;;;;1.42;99.48;101817.13;10499466;28;20133;-72
2021/12/11 22:53:27;;;;;;;17.77;9.07;;;;;;;1.31;99.77;101778.34;10482170;28;20101;-72
2021/12/11 22:58:37;;;;;;;18.00;8.10;;;;;;;1.34;99.50;101807.00;10497393;28;20052;-73
2021/12/11 23:03:50;;;;;;;14.98;7.88;;;;;;;1.29;99.57;101798.53;10481574;28;20044;-74
2021/12/11 23:08:55;;;;;;;14.15;7.72;;;;;;;0.35;99.20;101650.28;10497877;28;20033;-72
2021/12/11 23:14:12;;;;;;;13.60;7.47;;;;;;;1.24;99.73;101793.50;10498542;28;20131;-72
2021/12/11 23:19:16;;;;;;;15.02;7.63;;;;;;;1.21;99.20;101791.03;10498355;28;20076;-72
2021/12/11 23:24:25;;;;;;;13.50;7.03;;;;;;;0.33;99.33;101646.91;10497852;28;20501;-73